Time;durP1;ratioP1;P1;durP2;ratioP2;P2;SDS_P1;SDS_P2;PMS_P1;PMS_P2;Temp;Humidity;BMP_temperature;BMP_pressure;BME280_temperature;BME280_humidity;BME280_pressure;Samples;Min_cycle;Max_cycle;Signal;HPM_P1;HPM_P2
2021/03/27 00:00:43;;;;;;;108.15;45.13;;;;;;;;;;4975459;28;20042;-80
2021/03/27 00:03:23;;;;;;;124.22;47.15;;;;;;;;;;4959705;28;20050;-81
2021/03/27 00:06:09;;;;;;;112.63;45.17;;;;;;;;;;4958656;28;20079;-81
2021/03/27 00:08:54;;;;;;;120.40;46.65;;;;;;;;;;4956207;28;20702;-81
2021/03/27 00:11:26;;;;;;;119.55;48.08;;;;;;;;;;4958988;28;20134;-81
2021/03/27 00:13:59;;;;;;;116.18;45.42;;;;;;;;;;4957193;28;20480;-81
2021/03/27 00:16:36;;;;;;;111.65;46.80;;;;;;;;;;4976143;28;20047;-82
2021/03/27 00:19:03;;;;;;;119.05;45.95;;;;;;;;;;4974660;28;20125;-81
2021/03/27 00:21:30;;;;;;;121.53;49.55;;;;;;;;;;4958246;28;20051;-82
2021/03/27 00:24:21;;;;;;;124.18;46.85;;;;;;;;;;4957834;28;20436;-82
2021/03/27 00:26:59;;;;;;;116.82;46.83;;;;;;;;;;4957399;28;20101;-82
2021/03/27 00:29:58;;;;;;;117.57;44.45;;;;;;;;;;4956501;28;20567;-82
2021/03/27 00:32:29;;;;;;;112.35;46.17;;;;;;;;;;4934198;28;20443;-82
2021/03/27 00:34:58;;;;;;;119.28;46.72;;;;;;;;;;4938720;28;20508;-82
2021/03/27 00:37:27;;;;;;;113.32;47.03;;;;;;;;;;4971990;28;20050;-81
2021/03/27 00:39:56;;;;;;;120.00;48.28;;;;;;;;;;4971143;28;20046;-81
2021/03/27 00:42:25;;;;;;;130.05;48.17;;;;;;;;;;4957532;28;20451;-81
2021/03/27 00:44:54;;;;;;;120.78;47.60;;;;;;;;;;4974757;28;20046;-82
2021/03/27 00:47:28;;;;;;;115.97;47.55;;;;;;;;;;4973724;28;20062;-83
2021/03/27 00:50:01;;;;;;;112.13;45.95;;;;;;;;;;4974812;28;20054;-82
2021/03/27 00:52:29;;;;;;;119.65;48.70;;;;;;;;;;4956097;28;20397;-82
2021/03/27 00:54:58;;;;;;;114.47;48.50;;;;;;;;;;4957103;28;20042;-82
2021/03/27 00:57:25;;;;;;;125.85;48.95;;;;;;;;;;4972768;28;20063;-82
2021/03/27 00:59:58;;;;;;;122.05;48.13;;;;;;;;;;4954321;28;20522;-82
2021/03/27 01:02:27;;;;;;;123.88;47.65;;;;;;;;;;4974118;28;20105;-81
2021/03/27 01:04:57;;;;;;;127.82;49.80;;;;;;;;;;4956547;28;20047;-82
2021/03/27 01:07:24;;;;;;;120.95;49.67;;;;;;;;;;4955076;28;20169;-82
2021/03/27 01:10:00;;;;;;;122.55;49.90;;;;;;;;;;4971182;28;20051;-82
2021/03/27 01:12:29;;;;;;;124.47;49.28;;;;;;;;;;4972738;28;20468;-81
2021/03/27 01:14:59;;;;;;;128.60;48.38;;;;;;;;;;4955897;28;20078;-82
2021/03/27 01:17:29;;;;;;;127.82;51.17;;;;;;;;;;4973268;28;20443;-82
2021/03/27 01:19:59;;;;;;;128.15;50.10;;;;;;;;;;4973101;28;20046;-82
2021/03/27 01:22:26;;;;;;;136.32;50.42;;;;;;;;;;4956424;28;20488;-81
2021/03/27 01:25:06;;;;;;;129.40;48.15;;;;;;;;;;4973073;28;20129;-82
2021/03/27 01:27:47;;;;;;;118.15;49.78;;;;;;;;;;4971371;28;20113;-81
2021/03/27 01:30:30;;;;;;;137.00;50.65;;;;;;;;;;4973526;28;20055;-82
2021/03/27 01:32:58;;;;;;;125.40;49.90;;;;;;;;;;4955682;28;20098;-81
2021/03/27 01:35:34;;;;;;;123.40;51.80;;;;;;;;;;4972347;28;20066;-82
2021/03/27 01:38:12;;;;;;;128.82;51.60;;;;;;;;;;4951804;28;20055;-82
2021/03/27 01:40:45;;;;;;;123.07;50.22;;;;;;;;;;4970656;28;20141;-82
2021/03/27 01:43:12;;;;;;;124.72;48.40;;;;;;;;;;4991736;28;20117;-82
2021/03/27 01:45:38;;;;;;;126.07;48.75;;;;;;;;;;4992599;28;20177;-82
2021/03/27 01:48:17;;;;;;;128.05;51.50;;;;;;;;;;4992549;28;20054;-82
2021/03/27 01:50:46;;;;;;;116.78;48.30;;;;;;;;;;4975305;28;20131;-82
2021/03/27 01:53:24;;;;;;;128.00;51.30;;;;;;;;;;4979796;28;20459;-82
2021/03/27 01:55:57;;;;;;;135.18;49.88;;;;;;;;;;4975017;28;20050;-82
2021/03/27 01:58:26;;;;;;;128.93;50.97;;;;;;;;;;4974326;28;20663;-82
2021/03/27 02:00:59;;;;;;;124.63;50.63;;;;;;;;;;4973746;28;20081;-82
2021/03/27 02:03:28;;;;;;;119.85;49.55;;;;;;;;;;4990318;28;20050;-81
2021/03/27 02:06:22;;;;;;;131.35;49.40;;;;;;;;;;4989404;28;20112;-81
2021/03/27 02:09:11;;;;;;;115.60;48.60;;;;;;;;;;4989881;28;20514;-82
2021/03/27 02:11:43;;;;;;;128.27;48.75;;;;;;;;;;4964281;28;20053;-81
2021/03/27 02:14:17;;;;;;;111.57;48.03;;;;;;;;;;4972936;28;20051;-82
2021/03/27 02:17:04;;;;;;;115.55;47.83;;;;;;;;;;4989282;28;20050;-81
2021/03/27 02:19:43;;;;;;;130.55;50.40;;;;;;;;;;4961058;28;20046;-81
2021/03/27 02:22:26;;;;;;;110.82;47.75;;;;;;;;;;4990038;28;20054;-81
2021/03/27 02:25:07;;;;;;;117.60;48.42;;;;;;;;;;4972681;28;20092;-81
2021/03/27 02:27:34;;;;;;;117.28;47.75;;;;;;;;;;4989873;28;20050;-82
2021/03/27 02:30:15;;;;;;;109.88;47.63;;;;;;;;;;4972691;28;20105;-82
2021/03/27 02:32:58;;;;;;;110.95;45.47;;;;;;;;;;4989837;28;20504;-82
2021/03/27 02:35:31;;;;;;;110.53;46.50;;;;;;;;;;4990096;28;20050;-82
2021/03/27 02:38:07;;;;;;;120.57;47.65;;;;;;;;;;4972218;28;20093;-82
2021/03/27 02:40:38;;;;;;;111.78;47.00;;;;;;;;;;4989605;28;20121;-82
2021/03/27 02:43:10;;;;;;;112.63;44.55;;;;;;;;;;4990097;28;20454;-83
2021/03/27 02:45:58;;;;;;;114.10;46.25;;;;;;;;;;4990165;28;20101;-82
2021/03/27 02:48:34;;;;;;;114.10;45.70;;;;;;;;;;4989984;28;20102;-82
2021/03/27 02:51:07;;;;;;;103.57;45.88;;;;;;;;;;4990456;28;20082;-82
2021/03/27 02:53:37;;;;;;;109.88;47.25;;;;;;;;;;4993592;28;20054;-82
2021/03/27 02:56:19;;;;;;;106.38;45.53;;;;;;;;;;4993187;28;20774;-82
2021/03/27 02:59:01;;;;;;;109.93;47.28;;;;;;;;;;4993959;28;20078;-82
2021/03/27 03:01:32;;;;;;;110.47;47.22;;;;;;;;;;4976359;28;20054;-83
2021/03/27 03:04:03;;;;;;;106.78;44.88;;;;;;;;;;4976298;28;20763;-82
2021/03/27 03:06:49;;;;;;;108.07;46.70;;;;;;;;;;4976089;28;20093;-82
2021/03/27 03:09:35;;;;;;;110.50;46.40;;;;;;;;;;4975801;28;20074;-83
2021/03/27 03:12:01;;;;;;;;;;;;;;;;;;4988414;28;20085;-84
2021/03/27 03:14:33;;;;;;;111.88;44.47;;;;;;;;;;4976175;28;20012;-82
2021/03/27 03:17:18;;;;;;;98.85;43.40;;;;;;;;;;4975723;28;20050;-82
2021/03/27 03:19:45;;;;;;;;;;;;;;;;;;4976504;28;20046;-82
2021/03/27 03:22:14;;;;;;;100.78;43.40;;;;;;;;;;4993337;28;20009;-82
2021/03/27 03:24:41;;;;;;;94.72;42.20;;;;;;;;;;4976244;28;20138;-82
2021/03/27 03:27:26;;;;;;;99.07;42.70;;;;;;;;;;4975441;28;20073;-82
2021/03/27 03:30:12;;;;;;;103.80;42.80;;;;;;;;;;4993034;28;20100;-82
2021/03/27 03:32:38;;;;;;;110.63;42.42;;;;;;;;;;4975678;28;20096;-82
2021/03/27 03:35:25;;;;;;;100.57;42.28;;;;;;;;;;4975230;28;20543;-82
2021/03/27 03:38:15;;;;;;;93.00;41.97;;;;;;;;;;4975439;28;20081;-82
2021/03/27 03:41:01;;;;;;;97.38;39.80;;;;;;;;;;4975419;28;20101;-83
2021/03/27 03:43:38;;;;;;;96.97;39.65;;;;;;;;;;4976618;28;20070;-82
2021/03/27 03:46:26;;;;;;;96.97;41.50;;;;;;;;;;4975726;28;20086;-83
2021/03/27 03:49:06;;;;;;;98.72;40.28;;;;;;;;;;4976541;28;20104;-83
2021/03/27 03:51:45;;;;;;;97.47;44.58;;;;;;;;;;4975769;28;20046;-83
2021/03/27 03:54:33;;;;;;;89.72;40.50;;;;;;;;;;4992303;28;20838;-83
2021/03/27 03:57:02;;;;;;;91.25;38.80;;;;;;;;;;4992578;28;20538;-83
2021/03/27 03:59:32;;;;;;;97.93;40.08;;;;;;;;;;4993132;28;20043;-83
2021/03/27 04:02:18;;;;;;;92.55;38.75;;;;;;;;;;4974442;28;20125;-83
2021/03/27 04:04:51;;;;;;;88.95;38.72;;;;;;;;;;4988808;28;20050;-83
2021/03/27 04:07:30;;;;;;;85.55;37.95;;;;;;;;;;4992282;28;20476;-83
2021/03/27 04:10:10;;;;;;;91.97;37.67;;;;;;;;;;4991619;28;20050;-83
2021/03/27 04:12:38;;;;;;;88.13;38.03;;;;;;;;;;4974847;28;20101;-82
2021/03/27 04:15:18;;;;;;;89.03;38.85;;;;;;;;;;4975044;28;20054;-83
2021/03/27 04:17:49;;;;;;;90.13;37.00;;;;;;;;;;4991956;28;20089;-83
2021/03/27 04:20:47;;;;;;;89.25;36.97;;;;;;;;;;4992211;28;20050;-82
2021/03/27 04:23:35;;;;;;;83.38;37.22;;;;;;;;;;4974740;28;20046;-82
2021/03/27 04:26:17;;;;;;;87.45;37.30;;;;;;;;;;4992219;28;20046;-81
2021/03/27 04:28:53;;;;;;;97.72;37.50;;;;;;;;;;4992481;28;20051;-81
2021/03/27 04:31:20;;;;;;;;;;;;;;;;;;4992077;28;20490;-82
2021/03/27 04:34:06;;;;;;;83.60;37.05;;;;;;;;;;4992132;28;19926;-82
2021/03/27 04:36:56;;;;;;;81.50;34.78;;;;;;;;;;4992430;28;20065;-81
2021/03/27 04:39:42;;;;;;;80.82;33.58;;;;;;;;;;4984088;28;20058;-82
2021/03/27 04:42:39;;;;;;;88.07;36.53;;;;;;;;;;4990742;28;20470;-82
2021/03/27 04:45:14;;;;;;;84.88;36.42;;;;;;;;;;4991489;28;20077;-82
2021/03/27 04:48:00;;;;;;;80.40;33.72;;;;;;;;;;4974049;28;20078;-82
2021/03/27 04:51:01;;;;;;;84.13;35.35;;;;;;;;;;4976564;28;20054;-82
2021/03/27 04:53:27;;;;;;;;;;;;;;;;;;4991676;28;20054;-81
2021/03/27 04:56:15;;;;;;;78.30;33.75;;;;;;;;;;5005874;28;20804;-82
2021/03/27 04:58:48;;;;;;;74.47;34.10;;;;;;;;;;5006562;28;20454;-82
2021/03/27 05:01:15;;;;;;;77.55;35.33;;;;;;;;;;4974390;28;20062;-81
2021/03/27 05:03:58;;;;;;;92.40;36.65;;;;;;;;;;4973624;28;20459;-82
2021/03/27 05:06:34;;;;;;;81.60;34.00;;;;;;;;;;4992378;28;20058;-81
2021/03/27 05:09:07;;;;;;;80.40;33.20;;;;;;;;;;4989906;28;20746;-81
2021/03/27 05:11:39;;;;;;;80.03;34.67;;;;;;;;;;4973114;28;20081;-81
2021/03/27 05:14:12;;;;;;;83.38;35.67;;;;;;;;;;4973223;28;20092;-81
2021/03/27 05:16:51;;;;;;;80.85;33.55;;;;;;;;;;4991120;28;20050;-82
2021/03/27 05:19:27;;;;;;;85.85;33.97;;;;;;;;;;4991291;28;20057;-82
2021/03/27 05:22:07;;;;;;;79.47;36.22;;;;;;;;;;4973733;28;20054;-82
2021/03/27 05:24:50;;;;;;;78.28;32.53;;;;;;;;;;4991271;28;20050;-82
2021/03/27 05:27:37;;;;;;;79.68;33.72;;;;;;;;;;5006274;28;20058;-82
2021/03/27 05:30:04;;;;;;;74.30;32.25;;;;;;;;;;4991609;28;20050;-82
2021/03/27 05:32:43;;;;;;;85.70;35.53;;;;;;;;;;5019780;28;20454;-82
2021/03/27 05:35:19;;;;;;;81.22;34.75;;;;;;;;;;4993899;28;20050;-82
2021/03/27 05:37:49;;;;;;;85.05;35.25;;;;;;;;;;4968983;28;20131;-82
2021/03/27 05:40:25;;;;;;;73.80;34.03;;;;;;;;;;4991564;28;21017;-82
2021/03/27 05:43:00;;;;;;;75.10;32.90;;;;;;;;;;4991938;28;20046;-82
2021/03/27 05:45:27;;;;;;;;;;;;;;;;;;4973812;28;20109;-82
2021/03/27 05:48:12;;;;;;;72.45;33.13;;;;;;;;;;4990889;28;19973;-83
2021/03/27 05:50:58;;;;;;;65.78;31.67;;;;;;;;;;4973604;28;20058;-82
2021/03/27 05:53:25;;;;;;;76.28;31.40;;;;;;;;;;4973345;28;20125;-82
2021/03/27 05:55:58;;;;;;;72.80;32.22;;;;;;;;;;4973538;28;20180;-83
2021/03/27 05:58:37;;;;;;;108.13;50.92;;;;;;;;;;4973499;28;20082;-83
2021/03/27 06:01:17;;;;;;;103.13;48.15;;;;;;;;;;4973454;28;20050;-83
2021/03/27 06:04:04;;;;;;;75.80;34.70;;;;;;;;;;4973797;28;20046;-83
2021/03/27 06:06:33;;;;;;;62.47;28.20;;;;;;;;;;4963254;28;20089;-82
2021/03/27 06:09:10;;;;;;;61.70;28.02;;;;;;;;;;4972386;28;20066;-82
2021/03/27 06:11:39;;;;;;;59.95;26.60;;;;;;;;;;4990594;28;20465;-84
2021/03/27 06:14:09;;;;;;;62.45;27.02;;;;;;;;;;4973829;28;20128;-83
2021/03/27 06:16:49;;;;;;;69.60;27.00;;;;;;;;;;4974414;28;20055;-85
2021/03/27 06:19:16;;;;;;;58.00;26.42;;;;;;;;;;4991051;28;20267;-87
2021/03/27 06:22:01;;;;;;;56.38;24.10;;;;;;;;;;4976270;28;20050;-84
2021/03/27 06:24:46;;;;;;;52.83;25.08;;;;;;;;;;4973473;28;20148;-86
2021/03/27 06:27:31;;;;;;;50.65;23.20;;;;;;;;;;4991778;28;20423;-82
2021/03/27 06:30:18;;;;;;;47.72;22.92;;;;;;;;;;4994709;28;20129;-82
2021/03/27 06:32:48;;;;;;;46.70;21.88;;;;;;;;;;4977801;28;20475;-83
2021/03/27 06:35:18;;;;;;;44.38;21.42;;;;;;;;;;4977290;28;20073;-83
2021/03/27 06:38:08;;;;;;;41.88;20.05;;;;;;;;;;4977169;28;20077;-83
2021/03/27 06:40:41;;;;;;;39.63;18.02;;;;;;;;;;4976661;28;20101;-82
2021/03/27 06:43:44;;;;;;;38.92;17.05;;;;;;;;;;4976946;28;20053;-83
2021/03/27 06:46:34;;;;;;;32.35;16.23;;;;;;;;;;4977020;28;20086;-83
2021/03/27 06:49:26;;;;;;;33.78;15.40;;;;;;;;;;4977375;28;20070;-85
2021/03/27 06:52:04;;;;;;;34.22;15.48;;;;;;;;;;4994731;28;20129;-88
2021/03/27 06:54:50;;;;;;;36.00;16.02;;;;;;;;;;4978006;28;20050;-87
2021/03/27 06:57:39;;;;;;;35.22;15.48;;;;;;;;;;4978399;28;20042;-87
2021/03/27 07:00:24;;;;;;;40.58;16.52;;;;;;;;;;4967422;28;20124;-89
2021/03/27 07:03:10;;;;;;;38.72;15.60;;;;;;;;;;4977206;28;20451;-81
2021/03/27 07:06:01;;;;;;;40.67;16.85;;;;;;;;;;4977061;28;20081;-83
2021/03/27 07:08:43;;;;;;;37.53;16.60;;;;;;;;;;4977396;28;20054;-85
2021/03/27 07:11:28;;;;;;;34.38;17.38;;;;;;;;;;4976981;28;20105;-84
2021/03/27 07:13:55;;;;;;;37.40;17.48;;;;;;;;;;4976678;28;20136;-82
2021/03/27 07:16:46;;;;;;;36.70;16.85;;;;;;;;;;4994340;28;20050;-83
2021/03/27 07:19:34;;;;;;;33.75;15.98;;;;;;;;;;4976943;28;20061;-81
2021/03/27 07:22:42;;;;;;;32.13;14.25;;;;;;;;;;4978057;28;20144;-84
2021/03/27 07:25:17;;;;;;;29.45;14.20;;;;;;;;;;4881133;29;20056;-82
2021/03/27 07:30:34;;;;;;;8.23;4.03;;;;;;;;;;4994493;28;20042;-83
2021/03/27 07:33:11;;;;;;;7.68;2.50;;;;;;;;;;4976895;28;20076;-81
2021/03/27 07:35:47;;;;;;;3.42;1.77;;;;;;;;;;4975966;28;20061;-87
2021/03/27 07:38:35;;;;;;;7.28;2.15;;;;;;;;;;4976906;28;20620;-82
2021/03/27 07:41:02;;;;;;;4.22;1.83;;;;;;;;;;4977078;28;20046;-82
2021/03/27 07:43:35;;;;;;;3.83;1.80;;;;;;;;;;4975982;28;20491;-80
2021/03/27 07:46:09;;;;;;;4.50;1.90;;;;;;;;;;4981940;28;20084;-81
2021/03/27 07:48:36;;;;;;;2.67;1.70;;;;;;;;;;4979726;28;20086;-81
2021/03/27 07:51:21;;;;;;;6.32;1.90;;;;;;;;;;4977544;28;20114;-81
2021/03/27 07:53:58;;;;;;;4.35;2.22;;;;;;;;;;4993244;28;20054;-81
2021/03/27 07:56:51;;;;;;;1.40;1.10;;;;;;;;;;4975413;28;20054;-78
2021/03/27 07:59:36;;;;;;;2.70;1.10;;;;;;;;;;4975662;28;20547;-80
2021/03/27 08:02:19;;;;;;;2.22;1.27;;;;;;;;;;4974546;28;20857;-80
2021/03/27 08:05:04;;;;;;;1.13;0.77;;;;;;;;;;4993346;28;20412;-79
2021/03/27 08:07:43;;;;;;;3.40;1.00;;;;;;;;;;4962276;28;20065;-79
2021/03/27 08:10:28;;;;;;;1.98;1.13;;;;;;;;;;4973277;28;20093;-80
2021/03/27 08:13:14;;;;;;;1.17;0.73;;;;;;;;;;4990703;28;20062;-79
2021/03/27 08:15:49;;;;;;;2.30;0.90;;;;;;;;;;4991728;28;20119;-80
2021/03/27 08:18:34;;;;;;;1.40;0.90;;;;;;;;;;4974100;28;20054;-79
2021/03/27 08:21:19;;;;;;;2.50;1.23;;;;;;;;;;4977410;28;20092;-79
2021/03/27 08:24:05;;;;;;;4.35;1.88;;;;;;;;;;4993557;28;20051;-80
2021/03/27 08:27:01;;;;;;;2.28;1.33;;;;;;;;;;4978042;28;20054;-81
2021/03/27 08:29:43;;;;;;;3.95;2.10;;;;;;;;;;4976659;28;20440;-80
2021/03/27 08:32:13;;;;;;;2.38;1.92;;;;;;;;;;4978001;28;20054;-82
2021/03/27 08:34:59;;;;;;;3.42;1.85;;;;;;;;;;4991939;28;20133;-79
2021/03/27 08:37:37;;;;;;;4.20;1.95;;;;;;;;;;4991788;28;20084;-80
2021/03/27 08:40:23;;;;;;;3.42;2.10;;;;;;;;;;4986352;28;20093;-81
2021/03/27 08:42:50;;;;;;;3.17;2.00;;;;;;;;;;4975650;28;20456;-81
2021/03/27 08:45:35;;;;;;;5.72;1.90;;;;;;;;;;4975635;28;20053;-81
2021/03/27 08:48:08;;;;;;;4.60;2.50;;;;;;;;;;4990812;28;20050;-80
2021/03/27 08:50:41;;;;;;;5.75;2.72;;;;;;;;;;4991833;28;20077;-80
2021/03/27 08:53:37;;;;;;;7.03;4.03;;;;;;;;;;4974919;28;20133;-78
2021/03/27 08:56:06;;;;;;;8.20;4.35;;;;;;;;;;4931544;29;20075;-79
2021/03/27 08:58:44;;;;;;;9.02;5.32;;;;;;;;;;4932151;29;20064;-79
2021/03/27 09:01:30;;;;;;;11.57;6.25;;;;;;;;;;4987373;28;20073;-79
2021/03/27 09:03:57;;;;;;;;;;;;;;;;;;4975330;28;20050;-80
2021/03/27 09:06:30;;;;;;;11.85;5.97;;;;;;;;;;4992133;28;19921;-80
2021/03/27 09:09:08;;;;;;;11.63;6.78;;;;;;;;;;4974891;28;20813;-79
2021/03/27 09:11:44;;;;;;;14.00;6.65;;;;;;;;;;4989587;28;20105;-78
2021/03/27 09:14:16;;;;;;;10.05;6.07;;;;;;;;;;4991298;28;20527;-81
2021/03/27 09:16:43;;;;;;;8.85;5.13;;;;;;;;;;4971474;28;20487;-82
2021/03/27 09:19:16;;;;;;;8.93;5.13;;;;;;;;;;4990911;28;20051;-82
2021/03/27 09:22:15;;;;;;;9.35;5.13;;;;;;;;;;4974073;28;20039;-83
2021/03/27 09:25:00;;;;;;;9.75;5.35;;;;;;;;;;4951702;28;20047;-84
2021/03/27 09:27:32;;;;;;;9.75;4.75;;;;;;;;;;4990728;28;20050;-81
2021/03/27 09:29:59;;;;;;;9.00;5.13;;;;;;;;;;4976770;28;20054;-80
2021/03/27 09:32:44;;;;;;;12.55;5.32;;;;;;;;;;4974282;28;20069;-81
2021/03/27 09:35:32;;;;;;;9.05;4.30;;;;;;;;;;4993601;28;20145;-81
2021/03/27 09:38:07;;;;;;;12.45;4.75;;;;;;;;;;4972762;28;20081;-79
2021/03/27 09:40:38;;;;;;;9.10;4.30;;;;;;;;;;4990404;28;20137;-79
2021/03/27 09:43:24;;;;;;;7.90;4.32;;;;;;;;;;4991599;28;20049;-80
2021/03/27 09:45:59;;;;;;;9.68;4.20;;;;;;;;;;4986216;28;20046;-79
2021/03/27 09:48:42;;;;;;;5.95;1.88;;;;;;;;;;4975156;28;20054;-79
2021/03/27 09:51:32;;;;;;;5.85;2.20;;;;;;;;;;4989083;28;20108;-78
2021/03/27 09:54:04;;;;;;;4.90;2.47;;;;;;;;;;4988532;28;20046;-79
2021/03/27 09:56:34;;;;;;;6.70;3.13;;;;;;;;;;4971344;28;20047;-78
2021/03/27 09:59:10;;;;;;;4.72;2.92;;;;;;;;;;4974259;28;20046;-78
2021/03/27 10:02:07;;;;;;;11.60;3.67;;;;;;;;;;4991684;28;20054;-78
2021/03/27 10:04:33;;;;;;;9.88;3.33;;;;;;;;;;4953806;28;20054;-78
2021/03/27 10:07:40;;;;;;;6.22;2.70;;;;;;;;;;4988228;28;20042;-78
2021/03/27 10:10:16;;;;;;;7.68;2.08;;;;;;;;;;4913999;29;20082;-78
2021/03/27 10:12:58;;;;;;;5.95;2.22;;;;;;;;;;4996607;28;20054;-84
2021/03/27 10:15:34;;;;;;;7.55;2.78;;;;;;;;;;4981523;28;20054;-84
2021/03/27 10:18:30;;;;;;;12.20;3.58;;;;;;;;;;4981171;28;20125;-83
2021/03/27 10:21:15;;;;;;;6.50;2.60;;;;;;;;;;4997980;28;20051;-85
2021/03/27 10:24:01;;;;;;;4.07;2.10;;;;;;;;;;4996639;28;20506;-82
2021/03/27 10:26:31;;;;;;;7.30;2.55;;;;;;;;;;4995861;28;20342;-86
2021/03/27 10:29:11;;;;;;;10.70;3.03;;;;;;;;;;4996408;28;20050;-82
2021/03/27 10:31:41;;;;;;;7.88;2.92;;;;;;;;;;4996374;28;20065;-82
2021/03/27 10:34:17;;;;;;;9.35;3.40;;;;;;;;;;4996104;28;20082;-82
2021/03/27 10:37:02;;;;;;;9.80;3.60;;;;;;;;;;4995891;28;20058;-82
2021/03/27 10:39:32;;;;;;;10.52;4.25;;;;;;;;;;4996043;28;20058;-82
2021/03/27 10:41:59;;;;;;;9.93;4.07;;;;;;;;;;4995364;28;20070;-82
2021/03/27 10:44:28;;;;;;;9.20;4.25;;;;;;;;;;4995680;28;20058;-82
2021/03/27 10:47:05;;;;;;;11.85;4.53;;;;;;;;;;4996654;28;20118;-82
2021/03/27 10:49:49;;;;;;;11.10;4.40;;;;;;;;;;4996314;28;20058;-83
2021/03/27 10:52:38;;;;;;;11.15;4.63;;;;;;;;;;4979058;28;20114;-82
2021/03/27 10:55:32;;;;;;;11.52;4.97;;;;;;;;;;4991081;28;20050;-82
2021/03/27 10:58:18;;;;;;;10.85;5.55;;;;;;;;;;4978010;28;20138;-82
2021/03/27 11:00:56;;;;;;;13.60;5.13;;;;;;;;;;4991027;28;20096;-82
2021/03/27 11:03:28;;;;;;;10.30;5.47;;;;;;;;;;4995698;28;20100;-82
2021/03/27 11:06:14;;;;;;;9.13;4.57;;;;;;;;;;4994967;28;20054;-80
2021/03/27 11:08:41;;;;;;;;;;;;;;;;;;4965768;28;20086;-82
2021/03/27 11:11:10;;;;;;;8.50;4.47;;;;;;;;;;4995313;28;19953;-81
2021/03/27 11:13:43;;;;;;;12.50;5.03;;;;;;;;;;4994456;28;20554;-81
2021/03/27 11:16:16;;;;;;;9.18;4.75;;;;;;;;;;4977081;28;20065;-81
2021/03/27 11:18:52;;;;;;;6.22;3.88;;;;;;;;;;4988116;28;20076;-81
2021/03/27 11:21:25;;;;;;;6.80;4.30;;;;;;;;;;4993780;28;20054;-82
2021/03/27 11:24:07;;;;;;;7.45;4.13;;;;;;;;;;4993875;28;20624;-81
2021/03/27 11:26:43;;;;;;;6.38;4.22;;;;;;;;;;4975984;28;20077;-81
2021/03/27 11:29:29;;;;;;;10.52;4.57;;;;;;;;;;4993869;28;20050;-81
2021/03/27 11:31:55;;;;;;;;;;;;;;;;;;4993352;28;20046;-81
2021/03/27 11:34:34;;;;;;;7.90;4.43;;;;;;;;;;4994724;28;20020;-81
2021/03/27 11:37:07;;;;;;;8.50;5.13;;;;;;;;;;4988419;28;20550;-80
2021/03/27 11:39:53;;;;;;;11.18;4.63;;;;;;;;;;4977032;28;20046;-80
2021/03/27 11:42:24;;;;;;;9.02;4.93;;;;;;;;;;4988984;28;20050;-81
2021/03/27 11:44:58;;;;;;;11.40;4.60;;;;;;;;;;4976016;28;20061;-81
2021/03/27 11:47:34;;;;;;;7.85;4.78;;;;;;;;;;4990154;28;20042;-80
2021/03/27 11:50:11;;;;;;;9.95;5.72;;;;;;;;;;4973361;28;20042;-80
2021/03/27 11:52:43;;;;;;;11.02;5.18;;;;;;;;;;4976684;28;20116;-80
2021/03/27 11:55:10;;;;;;;8.65;5.15;;;;;;;;;;4976839;28;20058;-80
2021/03/27 11:57:49;;;;;;;14.65;6.00;;;;;;;;;;4993063;28;20128;-80
2021/03/27 12:03:13;;;;;;;8.88;5.32;;;;;;;;;;4991522;28;20132;-80
2021/03/27 12:05:43;;;;;;;12.95;6.00;;;;;;;;;;4994013;28;20685;-81
2021/03/27 12:08:18;;;;;;;19.50;7.28;;;;;;;;;;4993993;28;20073;-80
2021/03/27 12:10:51;;;;;;;11.38;6.03;;;;;;;;;;4993635;28;20052;-80
2021/03/27 12:13:30;;;;;;;17.83;6.78;;;;;;;;;;4975823;28;20054;-81
2021/03/27 12:16:16;;;;;;;14.07;6.55;;;;;;;;;;4975518;28;20409;-81
2021/03/27 12:18:47;;;;;;;10.05;5.78;;;;;;;;;;4977420;28;20107;-81
2021/03/27 12:21:14;;;;;;;11.15;5.78;;;;;;;;;;4975489;28;20109;-80
2021/03/27 12:23:51;;;;;;;8.43;5.35;;;;;;;;;;4991962;28;20070;-81
2021/03/27 12:26:31;;;;;;;10.10;4.70;;;;;;;;;;4990041;28;20043;-82
2021/03/27 12:29:22;;;;;;;8.70;4.50;;;;;;;;;;4974608;28;20089;-82
2021/03/27 12:32:07;;;;;;;5.50;3.65;;;;;;;;;;4989986;28;20077;-81
2021/03/27 12:34:37;;;;;;;6.80;3.85;;;;;;;;;;4990386;28;20085;-81
2021/03/27 12:37:07;;;;;;;7.05;3.78;;;;;;;;;;4990862;28;20161;-81
2021/03/27 12:39:48;;;;;;;5.88;3.63;;;;;;;;;;4973882;28;20066;-81
2021/03/27 12:42:19;;;;;;;5.88;3.55;;;;;;;;;;4990244;28;20074;-81
2021/03/27 12:44:57;;;;;;;7.65;3.47;;;;;;;;;;4989854;28;20050;-81
2021/03/27 12:47:27;;;;;;;7.95;3.72;;;;;;;;;;4969980;28;20054;-81
2021/03/27 12:50:03;;;;;;;7.55;4.03;;;;;;;;;;4991425;28;20046;-80
2021/03/27 12:53:02;;;;;;;6.75;3.85;;;;;;;;;;4987132;28;20120;-79
2021/03/27 12:55:35;;;;;;;10.77;4.57;;;;;;;;;;4948717;28;20050;-80
2021/03/27 12:58:02;;;;;;;11.48;4.75;;;;;;;;;;4986553;28;20430;-80
2021/03/27 13:00:43;;;;;;;12.05;4.53;;;;;;;;;;4991897;28;20100;-80
2021/03/27 13:03:13;;;;;;;12.23;4.47;;;;;;;;;;4990093;28;20054;-79
2021/03/27 13:05:48;;;;;;;10.30;3.00;;;;;;;;;;4990999;28;20070;-79
2021/03/27 13:08:18;;;;;;;12.27;2.67;;;;;;;;;;4991452;28;20046;-79
2021/03/27 13:10:52;;;;;;;4.40;2.40;;;;;;;;;;4989742;28;20134;-79
2021/03/27 13:13:38;;;;;;;2.38;1.58;;;;;;;;;;4973291;28;20161;-82
2021/03/27 13:16:07;;;;;;;2.13;1.45;;;;;;;;;;4990283;28;20488;-84
2021/03/27 13:18:36;;;;;;;1.90;1.27;;;;;;;;;;4975183;28;20069;-85
2021/03/27 13:21:09;;;;;;;3.08;1.27;;;;;;;;;;4992837;28;20129;-83
2021/03/27 13:23:56;;;;;;;3.28;1.02;;;;;;;;;;4974640;28;20057;-80
2021/03/27 13:26:23;;;;;;;4.60;1.10;;;;;;;;;;4989031;28;20050;-80
2021/03/27 13:29:09;;;;;;;3.22;1.30;;;;;;;;;;4991480;28;20129;-85
2021/03/27 13:31:47;;;;;;;3.58;1.73;;;;;;;;;;4976154;28;20054;-88
2021/03/27 13:34:25;;;;;;;2.65;1.20;;;;;;;;;;4961461;28;20482;-83
2021/03/27 13:37:18;;;;;;;3.50;1.20;;;;;;;;;;4992503;28;20105;-83
2021/03/27 13:39:59;;;;;;;7.65;1.55;;;;;;;;;;4965219;28;20050;-84
2021/03/27 13:42:26;;;;;;;4.18;1.90;;;;;;;;;;4971197;28;20055;-78
2021/03/27 13:44:53;;;;;;;6.38;2.20;;;;;;;;;;4969173;28;20050;-79
2021/03/27 13:47:30;;;;;;;3.60;2.00;;;;;;;;;;4969411;28;20117;-80
2021/03/27 13:50:13;;;;;;;4.25;1.40;;;;;;;;;;4969522;28;20057;-78
2021/03/27 13:52:58;;;;;;;6.32;1.70;;;;;;;;;;4968276;28;20125;-78
2021/03/27 13:55:49;;;;;;;3.47;1.83;;;;;;;;;;4966916;28;20110;-79
2021/03/27 13:58:21;;;;;;;2.75;1.65;;;;;;;;;;4964723;28;20121;-79
2021/03/27 14:00:53;;;;;;;4.20;1.90;;;;;;;;;;4965966;28;20648;-78
2021/03/27 14:03:56;;;;;;;3.13;1.98;;;;;;;;;;4967139;28;20070;-82
2021/03/27 14:06:30;;;;;;;2.35;1.63;;;;;;;;;;4910026;29;20048;-78
2021/03/27 14:09:25;;;;;;;3.88;2.00;;;;;;;;;;4954977;28;20090;-79
2021/03/27 14:11:58;;;;;;;4.05;2.47;;;;;;;;;;4967394;28;20078;-79
2021/03/27 14:14:29;;;;;;;5.35;2.60;;;;;;;;;;4967202;28;20134;-79
2021/03/27 14:17:14;;;;;;;5.55;2.80;;;;;;;;;;4970660;28;20491;-82
2021/03/27 14:20:09;;;;;;;6.10;2.50;;;;;;;;;;4968231;28;20049;-78
2021/03/27 14:22:46;;;;;;;3.97;2.10;;;;;;;;;;4941379;28;20057;-81
2021/03/27 14:25:13;;;;;;;6.13;1.77;;;;;;;;;;4963344;28;20058;-77
2021/03/27 14:28:08;;;;;;;4.72;1.90;;;;;;;;;;4966977;28;20142;-80
2021/03/27 14:30:50;;;;;;;9.48;1.90;;;;;;;;;;4971848;28;20063;-79
2021/03/27 14:33:27;;;;;;;10.80;2.22;;;;;;;;;;4972488;28;20102;-79
2021/03/27 14:35:54;;;;;;;11.18;1.83;;;;;;;;;;4969547;28;20102;-80
2021/03/27 14:38:26;;;;;;;14.75;2.53;;;;;;;;;;4971261;28;20457;-79
2021/03/27 14:41:01;;;;;;;18.48;2.40;;;;;;;;;;4979475;28;20046;-84
2021/03/27 14:43:34;;;;;;;13.07;2.78;;;;;;;;;;4972611;28;20050;-82
2021/03/27 14:46:18;;;;;;;19.67;2.83;;;;;;;;;;4973219;28;20475;-81
2021/03/27 14:48:57;;;;;;;10.95;2.08;;;;;;;;;;4994436;28;20761;-81
2021/03/27 14:51:30;;;;;;;21.83;3.63;;;;;;;;;;4977177;28;20057;-79
2021/03/27 14:54:01;;;;;;;11.10;2.75;;;;;;;;;;4993928;28;20105;-78
2021/03/27 14:56:55;;;;;;;14.27;2.50;;;;;;;;;;4994594;28;20077;-79
2021/03/27 14:59:23;;;;;;;15.13;3.13;;;;;;;;;;4968228;28;20074;-79
2021/03/27 15:01:57;;;;;;;17.50;2.60;;;;;;;;;;4994670;28;20594;-81
2021/03/27 15:04:38;;;;;;;6.63;3.00;;;;;;;;;;4971727;28;20034;-80
2021/03/27 15:07:24;;;;;;;16.98;3.63;;;;;;;;;;4991747;28;20160;-79
2021/03/27 15:10:12;;;;;;;14.10;2.70;;;;;;;;;;4992413;28;20042;-80
2021/03/27 15:12:44;;;;;;;12.20;2.92;;;;;;;;;;4976753;28;20154;-81
2021/03/27 15:15:17;;;;;;;13.07;2.80;;;;;;;;;;4993894;28;20134;-78
2021/03/27 15:17:44;;;;;;;13.95;3.00;;;;;;;;;;4991431;28;20125;-78
2021/03/27 15:20:30;;;;;;;11.88;3.08;;;;;;;;;;4994726;28;20141;-81
2021/03/27 15:23:09;;;;;;;12.57;3.20;;;;;;;;;;4977367;28;20100;-79
2021/03/27 15:28:50;;;;;;;13.85;3.83;;;;;;;;;;4991285;28;20061;-79
2021/03/27 15:31:36;;;;;;;20.52;3.80;;;;;;;;;;4974703;28;20058;-80
2021/03/27 15:34:04;;;;;;;18.77;3.00;;;;;;;;;;4975456;28;20074;-80
2021/03/27 15:36:54;;;;;;;15.07;2.65;;;;;;;;;;4974913;28;20089;-80
2021/03/27 15:39:35;;;;;;;9.07;2.92;;;;;;;;;;4988300;28;20043;-81